This is the latest recevied weather packets stored in our database for station/object N4OGP-WX. If no packets are shown the sender has not sent any weather packets the latest 10 day(s).
| Time | Temp. | Humidity | Pressure | Rain* | Wind** | Luminosity | Snow |
|---|---|---|---|---|---|---|---|
| 1778237158 | 23.89° C | 42% | 1020.4 hPa | 0 mm | - | - | - |
| 1778237098 | 23.89° C | 42% | 1020.4 hPa | 0 mm | - | - | - |
| 1778237038 | 23.89° C | 42% | 1020.4 hPa | 0 mm | - | - | - |
| 1778236948 | 19.44° C | 87% | 1011.7 hPa | 0 mm | - | - | - |
| 1778236888 | 23.89° C | 42% | 1020.4 hPa | 0 mm | - | - | - |
| 1778236799 | 23.89° C | 42% | 1020.4 hPa | 0 mm | - | - | - |
| 1778236708 | 19.44° C | 87% | 1011.7 hPa | 0 mm | - | - | - |
| 1778236618 | 19.44° C | 87% | 1011.7 hPa | 0 mm | - | - | - |
| 1778236558 | 23.89° C | 42% | 1020.4 hPa | 0 mm | - | - | - |
| 1778236498 | 19.44° C | 87% | 1011.7 hPa | 0 mm | - | - | - |
| 1778236438 | 19.44° C | 88% | 1011.6 hPa | 0 mm | - | - | - |
| 1778236348 | 19.44° C | 87% | 1011.5 hPa | 0 mm | - | - | - |
| 1778236288 | 23.89° C | 42% | 1020.4 hPa | 0 mm | - | - | - |
| 1778236198 | 23.89° C | 42% | 1020.4 hPa | 0 mm | - | - | - |
| 1778236108 | 19.44° C | 88% | 1011.3 hPa | 0 mm | - | - | - |
| 1778236048 | 19.44° C | 88% | 1011.3 hPa | 0 mm | - | - | - |
| 1778235958 | 19.44° C | 88% | 1011.2 hPa | 0 mm | - | - | - |
| 1778235868 | 23.89° C | 42% | 1020.4 hPa | 0 mm | - | - | - |
| 1778235808 | 19.44° C | 88% | 1011.2 hPa | 0 mm | - | - | - |
| 1778235748 | 19.44° C | 88% | 1011.2 hPa | 0 mm | - | - | - |
| 1778235688 | 19.44° C | 88% | 1011.2 hPa | 0 mm | - | - | - |
| 1778235598 | 19.44° C | 88% | 1011.4 hPa | 0 mm | - | - | - |
| 1778235538 | 23.89° C | 42% | 1020.4 hPa | 0 mm | - | - | - |
| 1778235448 | 23.89° C | 42% | 1020.4 hPa | 0 mm | - | - | - |
| 1778235388 | 23.89° C | 42% | 1020.4 hPa | 0 mm | - | - | - |
* Rain latest hour (hover to see other rain measurements)
** Current wind speed in m/s (hover to see current wind gust speed)